Terminal Aerodrome Forecast
Issued by NWS

Home | Current Version | Previous Version | Text Only | Print | Product List | Glossary On
Versions: 1 2 3 4 5 6 7 8 9 10 11 12 13 14 15 16 17 18
000
FTUS45 KBOU 240711 AAA
TAFBJC
TAF AMD
KBJC 240711Z 2407/2506 14007KT P6SM SCT070 BKN120
     FM241100 13008KT P6SM VCSH SCT070 BKN100
     FM241800 11010KT P6SM SCT080 BKN150 PROB30 2422/2501 VRB15G25KT
      -TSRA BKN060CB
     FM250200 12008KT P6SM SCT050 BKN080=

USA.gov is the U.S. government's official web portal to all federal, state and local government web resources and services.